createdAt,value
2023-02-19T00:01:28.256Z,70.69
2023-02-19T00:03:59.088Z,71.00
2023-02-19T00:06:27.759Z,70.57
2023-02-19T00:08:54.915Z,71.27
2023-02-19T00:11:26.116Z,71.16
2023-02-19T00:13:55.524Z,71.07
2023-02-19T00:16:27.790Z,71.19
2023-02-19T00:18:56.370Z,70.63
2023-02-19T00:21:23.943Z,71.27
2023-02-19T00:23:52.870Z,71.30
2023-02-19T00:26:19.712Z,71.41
2023-02-19T00:28:48.537Z,71.39
2023-02-19T00:31:22.902Z,71.47
2023-02-19T00:33:52.644Z,71.58
2023-02-19T00:36:20.188Z,71.47
2023-02-19T00:38:47.024Z,71.66
2023-02-19T00:41:21.730Z,71.53
2023-02-19T00:44:03.090Z,71.47
2023-02-19T00:46:35.844Z,71.64
2023-02-19T00:49:04.532Z,71.39
2023-02-19T00:51:34.979Z,71.38
2023-02-19T00:54:02.150Z,71.43
2023-02-19T00:56:28.908Z,71.51
2023-02-19T00:58:56.228Z,71.43
2023-02-19T01:01:23.520Z,71.40
2023-02-19T01:03:50.964Z,71.58
2023-02-19T01:06:19.908Z,71.42
2023-02-19T01:08:47.321Z,71.57
2023-02-19T01:11:14.818Z,71.90
2023-02-19T01:13:42.864Z,71.75
2023-02-19T01:16:19.194Z,71.93
2023-02-19T01:18:47.935Z,71.98
2023-02-19T01:21:20.183Z,71.86
2023-02-19T01:23:48.317Z,71.70
2023-02-19T01:26:19.925Z,71.73
2023-02-19T01:28:47.139Z,71.87
2023-02-19T01:31:17.938Z,71.84
2023-02-19T01:33:53.910Z,72.22
2023-02-19T01:36:21.256Z,72.17
2023-02-19T01:38:48.712Z,71.82
2023-02-19T01:41:18.381Z,72.11
2023-02-19T01:44:15.917Z,72.13
2023-02-19T01:46:43.864Z,72.18
2023-02-19T01:49:15.863Z,71.86
2023-02-19T01:51:47.583Z,71.65
2023-02-19T01:54:18.060Z,71.50
2023-02-19T01:56:47.758Z,71.55
2023-02-19T01:59:15.354Z,71.55
2023-02-19T02:01:42.367Z,71.38
2023-02-19T02:04:13.332Z,71.65
2023-02-19T02:06:55.973Z,71.76
2023-02-19T02:09:55.953Z,71.86
2023-02-19T02:12:22.657Z,71.95
2023-02-19T02:14:49.382Z,71.84
2023-02-19T02:17:25.267Z,71.92
2023-02-19T02:20:26.325Z,72.01
2023-02-19T02:23:21.549Z,72.01
2023-02-19T02:26:36.385Z,72.23
2023-02-19T02:29:03.211Z,71.95
2023-02-19T02:31:43.496Z,72.00
2023-02-19T02:34:29.907Z,72.00
2023-02-19T02:36:57.542Z,71.96
2023-02-19T02:39:27.433Z,72.13
2023-02-19T02:42:17.084Z,72.03
2023-02-19T02:45:05.236Z,71.96
2023-02-19T02:47:52.899Z,71.84
2023-02-19T02:50:26.270Z,71.99
2023-02-19T02:53:18.465Z,72.04
2023-02-19T02:55:49.760Z,72.23
2023-02-19T02:58:18.514Z,71.93
2023-02-19T03:01:10.471Z,71.95
2023-02-19T03:03:40.088Z,71.90
2023-02-19T03:06:09.476Z,72.05
2023-02-19T03:08:40.758Z,72.22
2023-02-19T03:11:30.629Z,71.93
2023-02-19T03:14:26.276Z,72.02
2023-02-19T03:17:18.827Z,72.18
2023-02-19T03:19:50.104Z,72.07
2023-02-19T03:22:25.981Z,72.03
2023-02-19T03:25:26.463Z,72.08
2023-02-19T03:27:57.696Z,72.39
2023-02-19T03:30:31.633Z,72.13
2023-02-19T03:33:08.269Z,72.04
2023-02-19T03:35:40.297Z,72.13
2023-02-19T03:38:18.797Z,72.35
2023-02-19T03:41:05.399Z,72.44
2023-02-19T03:43:32.775Z,72.24
2023-02-19T03:46:12.014Z,72.31
2023-02-19T03:48:48.909Z,72.54
2023-02-19T03:51:28.706Z,72.66
2023-02-19T03:54:20.446Z,72.64
2023-02-19T03:56:54.754Z,72.48
2023-02-19T03:59:55.992Z,72.32
2023-02-19T04:03:07.851Z,72.65
2023-02-19T04:05:41.299Z,72.64
2023-02-19T04:08:17.357Z,72.59
2023-02-19T04:10:50.071Z,72.86
2023-02-19T04:13:30.472Z,72.91
2023-02-19T04:16:04.762Z,72.63
2023-02-19T04:18:34.473Z,72.84
2023-02-19T04:21:03.731Z,72.58
2023-02-19T04:23:33.046Z,72.72
2023-02-19T04:26:01.411Z,72.62
2023-02-19T04:28:29.349Z,72.57
2023-02-19T04:30:56.196Z,72.90
2023-02-19T04:33:22.959Z,73.03
2023-02-19T04:35:49.708Z,72.84
2023-02-19T04:38:16.395Z,72.82
2023-02-19T04:40:43.138Z,72.87
2023-02-19T04:43:09.897Z,72.81
2023-02-19T04:45:39.718Z,72.86
2023-02-19T04:48:06.462Z,73.07
2023-02-19T04:50:33.300Z,73.15
2023-02-19T04:53:00.038Z,73.19
2023-02-19T04:55:26.724Z,73.02
2023-02-19T04:57:53.422Z,73.07
2023-02-19T05:00:20.357Z,72.79
2023-02-19T05:02:47.111Z,72.82
2023-02-19T05:05:14.157Z,72.88
2023-02-19T05:07:40.834Z,72.72
2023-02-19T05:10:07.941Z,72.67
2023-02-19T05:12:34.656Z,72.83
2023-02-19T05:15:01.340Z,72.77
2023-02-19T05:17:27.888Z,73.14
2023-02-19T05:19:54.531Z,72.94
2023-02-19T05:22:21.285Z,72.86
2023-02-19T05:24:47.936Z,72.74
2023-02-19T05:27:14.630Z,72.95
2023-02-19T05:29:41.381Z,72.80
2023-02-19T05:32:08.082Z,72.95
2023-02-19T05:34:34.730Z,73.03
2023-02-19T05:37:01.368Z,72.96
2023-02-19T05:39:28.104Z,73.15
2023-02-19T05:41:54.814Z,72.98
2023-02-19T05:44:21.518Z,72.96
2023-02-19T05:46:48.259Z,73.04
2023-02-19T05:49:14.995Z,72.88
2023-02-19T05:51:41.616Z,72.78
2023-02-19T05:54:08.266Z,72.61
2023-02-19T05:56:40.324Z,72.62
2023-02-19T05:59:08.534Z,72.63
2023-02-19T06:01:35.682Z,72.80
2023-02-19T06:04:02.830Z,72.86
2023-02-19T06:06:29.969Z,72.76
2023-02-19T06:08:58.769Z,72.88
2023-02-19T06:11:25.724Z,72.79
2023-02-19T06:13:52.447Z,72.75
2023-02-19T06:16:19.771Z,72.65
2023-02-19T06:18:46.752Z,72.58
2023-02-19T06:21:14.932Z,72.73
2023-02-19T06:23:42.287Z,72.62
2023-02-19T06:26:27.186Z,73.05
2023-02-19T06:28:54.259Z,72.96
2023-02-19T06:31:22.840Z,72.89
2023-02-19T06:33:50.941Z,73.11
2023-02-19T06:36:20.451Z,73.27
2023-02-19T06:38:47.817Z,73.01
2023-02-19T06:41:14.914Z,73.18
2023-02-19T06:43:42.947Z,73.51
2023-02-19T06:46:12.050Z,73.52
2023-02-19T06:48:40.887Z,73.51
2023-02-19T06:51:08.405Z,73.46
2023-02-19T06:53:35.401Z,73.51
2023-02-19T06:56:05.710Z,73.98
2023-02-19T06:58:36.506Z,73.99
2023-02-19T07:01:03.234Z,73.80
2023-02-19T07:03:30.007Z,73.79
2023-02-19T07:05:59.803Z,73.72
2023-02-19T07:08:28.571Z,73.88
2023-02-19T07:10:58.534Z,73.78
2023-02-19T07:13:29.704Z,73.76
2023-02-19T07:16:01.920Z,73.74
2023-02-19T07:18:30.419Z,73.86
2023-02-19T07:21:09.170Z,73.46
2023-02-19T07:23:36.534Z,73.51
2023-02-19T07:26:04.282Z,73.42
2023-02-19T07:28:31.150Z,73.37
2023-02-19T07:31:02.759Z,73.35
2023-02-19T07:33:30.167Z,73.24
2023-02-19T07:35:57.711Z,73.29
2023-02-19T07:38:26.307Z,73.20
2023-02-19T07:40:57.614Z,73.25
2023-02-19T07:43:25.785Z,73.24
2023-02-19T07:45:52.809Z,73.17
2023-02-19T07:48:20.515Z,73.19
2023-02-19T07:50:54.993Z,73.25
2023-02-19T07:53:22.618Z,73.03
2023-02-19T07:55:49.819Z,72.98
2023-02-19T07:58:17.038Z,73.04
2023-02-19T08:00:43.853Z,72.86
2023-02-19T08:03:11.410Z,72.72
2023-02-19T08:05:40.174Z,72.68
2023-02-19T08:08:12.065Z,72.49
2023-02-19T08:10:57.950Z,72.43
2023-02-19T08:13:26.648Z,72.28
2023-02-19T08:16:20.017Z,72.32
2023-02-19T08:18:49.463Z,72.21
2023-02-19T08:21:18.410Z,72.20
2023-02-19T08:23:46.615Z,72.03
2023-02-19T08:26:13.988Z,72.14
2023-02-19T08:28:41.374Z,72.14
2023-02-19T08:31:11.417Z,71.97
2023-02-19T08:33:38.760Z,72.15
2023-02-19T08:36:07.834Z,71.92
2023-02-19T08:38:36.031Z,71.84
2023-02-19T08:41:07.714Z,71.72
2023-02-19T08:43:34.808Z,71.83
2023-02-19T08:46:01.647Z,71.79
2023-02-19T08:48:28.999Z,71.67
2023-02-19T08:50:58.341Z,71.71
2023-02-19T08:53:26.149Z,71.89
2023-02-19T08:55:53.638Z,71.65
2023-02-19T08:58:20.472Z,72.14
2023-02-19T09:00:47.695Z,71.83
2023-02-19T09:03:14.643Z,71.56
2023-02-19T09:05:42.015Z,71.48
2023-02-19T09:08:09.279Z,71.39
2023-02-19T09:10:36.020Z,71.27
2023-02-19T09:13:02.979Z,71.11
2023-02-19T09:15:29.896Z,71.23
2023-02-19T09:17:57.217Z,71.15
2023-02-19T09:20:23.978Z,71.19
2023-02-19T09:22:50.821Z,71.11
2023-02-19T09:25:17.685Z,71.12
2023-02-19T09:27:44.404Z,71.34
2023-02-19T09:30:11.547Z,71.27
2023-02-19T09:32:38.458Z,71.04
2023-02-19T09:35:05.399Z,71.37
2023-02-19T09:37:34.021Z,71.05
2023-02-19T09:40:00.922Z,71.04
2023-02-19T09:42:31.568Z,71.20
2023-02-19T09:45:00.987Z,70.77
2023-02-19T09:47:31.403Z,71.10
2023-02-19T09:50:06.641Z,71.05
2023-02-19T09:52:36.931Z,71.44
2023-02-19T09:55:15.032Z,71.05
2023-02-19T09:57:43.717Z,70.50
2023-02-19T10:00:19.233Z,70.70
2023-02-19T10:02:46.062Z,70.82
2023-02-19T10:05:14.615Z,70.53
2023-02-19T10:07:47.936Z,70.31
2023-02-19T10:10:14.697Z,70.19
2023-02-19T10:12:47.672Z,70.11
2023-02-19T10:15:25.328Z,70.30
2023-02-19T10:17:52.120Z,70.36
2023-02-19T10:20:26.763Z,70.10
2023-02-19T10:23:06.129Z,70.09
2023-02-19T10:25:34.922Z,70.20
2023-02-19T10:28:02.707Z,70.03
2023-02-19T10:30:32.203Z,70.15
2023-02-19T10:33:10.211Z,69.30
2023-02-19T10:36:00.478Z,69.18
2023-02-19T10:38:40.516Z,69.03
2023-02-19T10:41:15.560Z,68.60
2023-02-19T10:43:51.105Z,68.99
2023-02-19T10:46:22.571Z,69.15
2023-02-19T10:49:04.988Z,68.88
2023-02-19T10:51:38.222Z,68.52
2023-02-19T10:54:07.139Z,68.10
2023-02-19T10:56:34.210Z,68.38
2023-02-19T10:59:19.322Z,68.55
2023-02-19T11:02:00.876Z,68.15
2023-02-19T11:04:34.033Z,68.29
2023-02-19T11:07:18.287Z,67.83
2023-02-19T11:09:49.714Z,67.76
2023-02-19T11:12:26.984Z,67.36
2023-02-19T11:14:54.503Z,66.91
2023-02-19T11:17:30.352Z,67.29
2023-02-19T11:20:00.252Z,67.31
2023-02-19T11:22:38.313Z,67.07
2023-02-19T11:25:06.968Z,66.82
2023-02-19T11:27:34.314Z,66.75
2023-02-19T11:30:22.742Z,66.56
2023-02-19T11:33:08.341Z,66.79
2023-02-19T11:35:35.044Z,66.77
2023-02-19T11:38:02.326Z,66.83
2023-02-19T11:40:40.692Z,66.32
2023-02-19T11:43:20.414Z,65.94
2023-02-19T11:46:07.192Z,66.18
2023-02-19T11:48:46.310Z,65.91
2023-02-19T11:51:39.103Z,66.39
2023-02-19T11:54:30.385Z,66.51
2023-02-19T12:00:02.480Z,66.61
2023-02-19T12:02:48.266Z,66.37
2023-02-19T12:05:19.688Z,66.69
2023-02-19T12:07:55.496Z,66.55
2023-02-19T12:10:47.817Z,65.90
2023-02-19T12:13:28.563Z,65.80
2023-02-19T12:16:18.241Z,65.96
2023-02-19T12:18:50.725Z,66.36
2023-02-19T12:21:29.883Z,66.03
2023-02-19T12:23:56.614Z,66.36
2023-02-19T12:26:41.740Z,66.01
2023-02-19T12:29:14.359Z,64.86
2023-02-19T12:32:03.052Z,64.38
2023-02-19T12:34:29.906Z,64.92
2023-02-19T12:37:11.621Z,65.30
2023-02-19T12:39:46.030Z,65.13
2023-02-19T12:42:45.990Z,64.51
2023-02-19T12:45:30.006Z,64.98
2023-02-19T12:48:06.784Z,64.15
2023-02-19T12:50:36.517Z,64.59
2023-02-19T12:53:25.225Z,64.37
2023-02-19T12:55:52.924Z,64.00
2023-02-19T12:58:37.936Z,63.43
2023-02-19T13:01:07.577Z,63.71
2023-02-19T13:04:13.454Z,63.55
2023-02-19T13:06:45.664Z,63.70
2023-02-19T13:09:19.842Z,63.91
2023-02-19T13:11:53.428Z,63.29
2023-02-19T13:14:34.298Z,63.99
2023-02-19T13:17:11.433Z,63.76
2023-02-19T13:19:38.695Z,63.80
2023-02-19T13:22:37.042Z,63.21
2023-02-19T13:25:06.898Z,63.29
2023-02-19T13:27:52.032Z,63.06
2023-02-19T13:30:43.349Z,62.81
2023-02-19T13:33:33.217Z,63.20
2023-02-19T13:36:28.442Z,63.12
2023-02-19T13:38:57.450Z,63.26
2023-02-19T13:41:39.474Z,62.98
2023-02-19T13:44:16.496Z,62.80
2023-02-19T13:46:45.724Z,63.24
2023-02-19T13:49:27.743Z,63.26
2023-02-19T13:51:56.202Z,63.40
2023-02-19T13:54:27.222Z,63.20
2023-02-19T13:57:29.430Z,63.10
2023-02-19T14:00:00.227Z,62.94
2023-02-19T14:02:31.361Z,62.74
2023-02-19T14:05:01.217Z,62.88
2023-02-19T14:07:27.934Z,62.92
2023-02-19T14:09:54.971Z,63.04
2023-02-19T14:12:33.409Z,63.24
2023-02-19T14:15:20.017Z,63.09
2023-02-19T14:17:46.812Z,63.04
2023-02-19T14:20:16.408Z,63.12
2023-02-19T14:22:46.230Z,63.32
2023-02-19T14:25:31.392Z,63.31
2023-02-19T14:28:17.401Z,62.93
2023-02-19T14:31:01.266Z,62.85
2023-02-19T14:33:35.829Z,62.93
2023-02-19T14:36:19.083Z,62.95
2023-02-19T14:38:52.078Z,62.49
2023-02-19T14:41:20.481Z,62.46
2023-02-19T14:43:50.732Z,62.45
2023-02-19T14:46:31.812Z,62.29
2023-02-19T14:49:08.112Z,61.97
2023-02-19T14:51:40.391Z,61.84
2023-02-19T14:54:17.588Z,61.64
2023-02-19T14:56:52.707Z,61.75
2023-02-19T14:59:27.417Z,61.54
2023-02-19T15:02:13.761Z,61.70
2023-02-19T15:04:40.704Z,61.52
2023-02-19T15:07:13.437Z,61.57
2023-02-19T15:09:44.990Z,61.60
2023-02-19T15:12:21.843Z,61.93
2023-02-19T15:14:51.141Z,61.94
2023-02-19T15:17:27.244Z,62.09
2023-02-19T15:19:55.715Z,62.21
2023-02-19T15:22:26.081Z,62.32
2023-02-19T15:24:52.831Z,62.47
2023-02-19T15:27:24.741Z,62.67
2023-02-19T15:29:53.739Z,62.81
2023-02-19T15:32:23.677Z,62.73
2023-02-19T15:34:58.732Z,62.83
2023-02-19T15:37:28.900Z,62.93
2023-02-19T15:39:57.825Z,62.97
2023-02-19T15:42:32.403Z,63.05
2023-02-19T15:45:13.791Z,63.22
2023-02-19T15:47:50.203Z,63.49
2023-02-19T15:50:34.641Z,63.70
2023-02-19T15:53:07.391Z,63.58
2023-02-19T15:55:43.765Z,63.36
2023-02-19T15:58:19.606Z,63.12
2023-02-19T16:00:55.986Z,63.31
2023-02-19T16:03:25.037Z,63.02
2023-02-19T16:06:18.200Z,63.27
2023-02-19T16:09:02.108Z,63.09
2023-02-19T16:11:30.996Z,62.92
2023-02-19T16:14:34.853Z,62.93
2023-02-19T16:17:15.633Z,63.05
2023-02-19T16:20:01.878Z,62.94
2023-02-19T16:22:31.461Z,63.02
2023-02-19T16:25:05.057Z,63.10
2023-02-19T16:27:31.926Z,63.33
2023-02-19T16:30:01.469Z,63.48
2023-02-19T16:32:28.297Z,63.69
2023-02-19T16:34:55.055Z,63.37
2023-02-19T16:37:30.571Z,63.32
2023-02-19T16:40:09.459Z,63.59
2023-02-19T16:42:38.165Z,63.78
2023-02-19T16:45:08.542Z,64.32
2023-02-19T16:47:40.565Z,64.13
2023-02-19T16:50:14.836Z,64.48
2023-02-19T16:53:03.108Z,64.41
2023-02-19T16:55:34.814Z,64.38
2023-02-19T16:58:01.607Z,64.48
2023-02-19T17:00:31.157Z,64.38
2023-02-19T17:03:02.993Z,64.47
2023-02-19T17:05:32.642Z,64.62
2023-02-19T17:07:59.368Z,64.59
2023-02-19T17:10:28.071Z,64.60
2023-02-19T17:12:56.100Z,64.64
2023-02-19T17:15:23.514Z,64.81
2023-02-19T17:17:50.249Z,64.68
2023-02-19T17:20:20.697Z,64.79
2023-02-19T17:22:47.473Z,64.80
2023-02-19T17:25:14.340Z,64.83
2023-02-19T17:27:41.334Z,64.99
2023-02-19T17:30:20.454Z,65.23
2023-02-19T17:32:47.137Z,64.97
2023-02-19T17:35:13.872Z,64.96
2023-02-19T17:37:40.612Z,65.21
2023-02-19T17:40:33.253Z,65.31
2023-02-19T17:43:01.217Z,65.12
2023-02-19T17:45:28.247Z,65.19
2023-02-19T17:47:54.999Z,65.38
2023-02-19T17:50:25.615Z,65.33
2023-02-19T17:52:52.660Z,65.37
2023-02-19T17:55:19.460Z,65.51
2023-02-19T17:57:49.762Z,65.70
2023-02-19T18:00:25.197Z,66.09
2023-02-19T18:02:51.924Z,66.07
2023-02-19T18:05:19.193Z,66.49
2023-02-19T18:07:47.462Z,66.15
2023-02-19T18:10:16.392Z,65.85
2023-02-19T18:12:43.298Z,65.94
2023-02-19T18:15:17.350Z,65.85
2023-02-19T18:17:44.565Z,66.30
2023-02-19T18:20:20.670Z,65.95
2023-02-19T18:22:47.721Z,65.90
2023-02-19T18:25:15.852Z,66.00
2023-02-19T18:27:42.783Z,66.03
2023-02-19T18:30:10.257Z,66.00
2023-02-19T18:32:37.498Z,65.76
2023-02-19T18:35:05.308Z,66.14
2023-02-19T18:37:33.794Z,66.01
2023-02-19T18:40:01.200Z,66.00
2023-02-19T18:42:28.726Z,65.89
2023-02-19T18:44:56.149Z,66.13
2023-02-19T18:47:25.428Z,65.99
2023-02-19T18:49:54.759Z,66.00
2023-02-19T18:52:24.860Z,66.04
2023-02-19T18:54:53.571Z,65.90
2023-02-19T18:57:22.315Z,65.96
2023-02-19T18:59:49.210Z,66.33
2023-02-19T19:02:16.184Z,66.03
2023-02-19T19:04:43.415Z,66.06
2023-02-19T19:07:10.834Z,65.88
2023-02-19T19:09:37.625Z,66.19
2023-02-19T19:12:04.803Z,66.11
2023-02-19T19:14:31.560Z,65.97
2023-02-19T19:16:58.286Z,66.15
2023-02-19T19:19:25.295Z,66.18
2023-02-19T19:21:53.871Z,66.25
2023-02-19T19:24:23.060Z,66.34
2023-02-19T19:26:50.830Z,66.61
2023-02-19T19:29:20.144Z,66.99
2023-02-19T19:31:47.089Z,66.77
2023-02-19T19:34:14.757Z,66.95
2023-02-19T19:36:41.650Z,66.86
2023-02-19T19:39:09.651Z,67.10
2023-02-19T19:41:36.965Z,67.08
2023-02-19T19:44:08.148Z,67.01
2023-02-19T19:46:35.197Z,67.00
2023-02-19T19:49:02.081Z,67.23
2023-02-19T19:51:33.828Z,67.43
2023-02-19T19:54:03.129Z,67.21
2023-02-19T19:56:30.702Z,66.96
2023-02-19T19:58:57.393Z,67.08
2023-02-19T20:01:24.185Z,67.24
2023-02-19T20:03:51.272Z,67.08
2023-02-19T20:06:30.780Z,67.02
2023-02-19T20:08:58.311Z,67.06
2023-02-19T20:11:26.809Z,66.91
2023-02-19T20:13:53.820Z,66.88
2023-02-19T20:16:25.387Z,67.17
2023-02-19T20:18:54.479Z,66.84
2023-02-19T20:21:21.380Z,66.65
2023-02-19T20:23:48.213Z,66.73
2023-02-19T20:26:22.042Z,66.64
2023-02-19T20:28:49.065Z,66.47
2023-02-19T20:31:16.040Z,66.73
2023-02-19T20:33:42.886Z,66.72
2023-02-19T20:36:09.802Z,66.81
2023-02-19T20:38:37.001Z,66.57
2023-02-19T20:41:03.957Z,66.66
2023-02-19T20:43:31.113Z,66.65
2023-02-19T20:45:57.896Z,66.51
2023-02-19T20:48:24.560Z,66.71
2023-02-19T20:50:51.446Z,66.67
2023-02-19T20:53:18.177Z,66.85
2023-02-19T20:55:45.124Z,66.85
2023-02-19T20:58:12.106Z,66.52
2023-02-19T21:00:38.766Z,66.84
2023-02-19T21:03:08.959Z,66.52
2023-02-19T21:05:38.646Z,66.65
2023-02-19T21:08:05.883Z,66.39
2023-02-19T21:10:32.682Z,66.46
2023-02-19T21:12:59.472Z,66.58
2023-02-19T21:15:27.825Z,66.64
2023-02-19T21:17:54.495Z,66.88
2023-02-19T21:20:21.268Z,66.66
2023-02-19T21:22:48.141Z,66.58
2023-02-19T21:25:14.969Z,66.75
2023-02-19T21:27:42.113Z,66.44
2023-02-19T21:30:09.335Z,66.51
2023-02-19T21:32:36.072Z,66.55
2023-02-19T21:35:03.008Z,66.81
2023-02-19T21:37:29.959Z,66.50
2023-02-19T21:40:00.698Z,66.44
2023-02-19T21:42:27.594Z,66.70
2023-02-19T21:44:54.503Z,66.48
2023-02-19T21:47:21.241Z,66.53
2023-02-19T21:49:48.150Z,66.75
2023-02-19T21:52:15.179Z,66.98
2023-02-19T21:54:41.986Z,67.09
2023-02-19T21:57:09.542Z,66.89
2023-02-19T21:59:36.335Z,67.13
2023-02-19T22:02:03.354Z,66.99
2023-02-19T22:04:30.118Z,67.05
2023-02-19T22:06:57.637Z,66.84
2023-02-19T22:09:24.681Z,67.03
2023-02-19T22:11:51.717Z,67.01
2023-02-19T22:14:19.491Z,67.39
2023-02-19T22:16:46.985Z,67.20
2023-02-19T22:19:14.937Z,67.62
2023-02-19T22:21:44.553Z,67.30
2023-02-19T22:24:17.247Z,67.79
2023-02-19T22:26:45.800Z,67.73
2023-02-19T22:29:14.564Z,67.57
2023-02-19T22:31:41.840Z,67.89
2023-02-19T22:34:09.321Z,67.60
2023-02-19T22:36:40.339Z,67.23
2023-02-19T22:39:10.440Z,67.61
2023-02-19T22:41:42.844Z,67.51
2023-02-19T22:44:11.416Z,67.64
2023-02-19T22:46:38.279Z,67.63
2023-02-19T22:49:07.050Z,67.77
2023-02-19T22:51:35.646Z,67.43
2023-02-19T22:54:02.756Z,67.66
2023-02-19T22:56:29.603Z,67.62
2023-02-19T22:58:57.412Z,67.65
2023-02-19T23:01:25.156Z,67.67
2023-02-19T23:04:00.207Z,67.68
2023-02-19T23:06:30.804Z,68.04
2023-02-19T23:08:59.320Z,67.64
2023-02-19T23:11:29.684Z,67.40
2023-02-19T23:13:56.914Z,67.76
2023-02-19T23:16:23.799Z,67.73
2023-02-19T23:18:50.820Z,67.64
2023-02-19T23:21:19.068Z,67.67
2023-02-19T23:23:46.516Z,67.35
2023-02-19T23:26:14.578Z,67.60
2023-02-19T23:28:42.871Z,67.70
2023-02-19T23:31:10.566Z,67.67
2023-02-19T23:33:37.377Z,67.94
2023-02-19T23:36:05.342Z,67.86
2023-02-19T23:38:32.099Z,67.84
2023-02-19T23:40:59.211Z,68.10
2023-02-19T23:43:25.985Z,68.24
2023-02-19T23:45:52.887Z,67.94
2023-02-19T23:48:19.584Z,67.65
2023-02-19T23:50:46.314Z,67.80
2023-02-19T23:53:13.007Z,67.84
2023-02-19T23:55:39.759Z,67.78
2023-02-19T23:58:06.529Z,67.90
